CW0845 Weather Reports


time (UTC)temp
C
wind
direction
speed
KPH
gust
KPH
rain 1hr
cm
rain 24hr
cm
rain mn
cm
humidity
%
barometer
mb
20211017150504 16 268 6.4 19.3 0.00 1.27 0.08 68 964.6
20211017150005 16 318 4.8 19.3 0.00 1.27 0.08 70 964.6
20211017145503 16 225 3.2 19.3 0.00 1.27 0.08 70 964.6
20211017145005 15 277 9.7 19.3 0.00 1.27 0.08 70 964.6
20211017144504 15 234 0.0 9.7 0.00 1.27 0.08 71 964.6
20211017144005 15 234 1.6 9.7 0.00 1.27 0.08 74 964.7
20211017143503 15 10 0.0 8.0 0.00 1.27 0.08 73 964.7
20211017143005 16 267 0.0 22.5 0.00 1.27 0.08 75 964.7
20211017142503 15 274 8.0 22.5 0.00 1.27 0.08 74 964.7
20211017142005 15 282 0.0 11.3 0.00 1.27 0.08 78 964.7
20211017141504 15 282 1.6 11.3 0.00 1.27 0.08 79 964.7
20211017141004 15 37 0.0 0.0 0.00 1.27 0.08 80 964.7
20211017140503 13 37 0.0 0.0 0.00 1.27 0.08 81 964.7
20211017140005 13 37 0.0 0.0 0.00 1.27 0.08 82 964.6
20211017135503 12 37 0.0 0.0 0.00 1.27 0.08 84 964.7
20211017135005 11 37 0.0 0.0 0.00 1.27 0.08 86 964.8
20211017134503 11 37 0.0 0.0 0.00 1.27 0.08 86 964.8
20211017134005 11 37 0.0 0.0 0.00 1.27 0.08 88 964.8
20211017133504 10 37 0.0 0.0 0.00 1.27 0.08 90 964.7
20211017133005 10 37 0.0 0.0 0.00 1.27 0.08 90 964.7
20211017132503 10 37 0.0 0.0 0.00 1.27 0.08 90 964.7
20211017132005 10 37 0.0 0.0 0.00 1.27 0.08 90 964.6
20211017131503 10 37 0.0 0.0 0.00 1.27 0.08 90 964.5
20211017131005 10 37 0.0 0.0 0.00 1.27 0.08 90 964.6
20211017130503 10 37 0.0 0.0 0.00 1.27 0.08 90 964.6
20211017130005 10 37 0.0 0.0 0.00 1.27 0.08 90 964.6
20211017125503 10 37 0.0 0.0 0.00 1.27 0.08 90 964.6
20211017125007 9 37 0.0 0.0 0.00 1.27 0.08 90 964.6
20211017124503 9 37 0.0 0.0 0.00 1.27 0.08 90 964.7
20211017124005 9 37 0.0 0.0 0.00 1.27 0.08 90 964.7
20211017123503 8 37 0.0 0.0 0.00 1.27 0.08 90 964.8
20211017123005 8 37 0.0 0.0 0.00 1.27 0.08 90 964.7
20211017122504 8 37 0.0 0.0 0.00 1.27 0.08 90 964.7
20211017122005 8 37 0.0 0.0 0.00 1.27 0.08 90 964.6
20211017121504 8 37 0.0 0.0 0.00 1.27 0.08 90 964.6
20211017121005 8 37 0.0 0.0 0.00 1.27 0.08 90 964.6
20211017120503 8 37 0.0 0.0 0.00 1.27 0.08 90 964.7
20211017120005 8 37 0.0 0.0 0.00 1.27 0.08 90 964.6
20211017115506 8 37 0.0 0.0 0.00 1.27 0.08 90 964.6
20211017115005 8 37 0.0 0.0 0.00 1.27 0.08 90 964.5
20211017114503 8 37 0.0 0.0 0.00 1.27 0.08 90 964.4
20211017114005 8 37 0.0 0.0 0.00 1.27 0.08 90 964.3
20211017113504 8 37 0.0 0.0 0.00 1.27 0.08 90 964.2
20211017113005 8 37 0.0 0.0 0.00 1.27 0.08 90 964.1
20211017112503 8 37 0.0 0.0 0.00 1.27 0.08 90 964.1
20211017112005 8 37 0.0 0.0 0.00 1.27 0.08 90 964.0
20211017111504 8 37 0.0 0.0 0.00 1.27 0.08 90 964.1
20211017111005 8 37 0.0 0.0 0.00 1.27 0.08 90 964.0
20211017110503 8 37 0.0 0.0 0.00 1.27 0.08 90 964.0
20211017110006 8 37 0.0 0.0 0.00 1.27 0.08 90 963.9
20211017105504 8 37 0.0 0.0 0.00 1.27 0.08 90 963.9
20211017105005 8 37 0.0 0.0 0.00 1.27 0.08 90 963.9
20211017104503 8 37 0.0 0.0 0.00 1.27 0.08 90 963.9
20211017104005 8 37 0.0 0.0 0.00 1.27 0.08 90 963.8
20211017103503 8 37 0.0 0.0 0.00 1.27 0.08 90 963.8
20211017103005 8 37 0.0 0.0 0.00 1.27 0.08 90 963.8
20211017102503 8 37 0.0 0.0 0.00 1.27 0.08 90 963.7
20211017102006 8 37 0.0 0.0 0.00 1.27 0.08 90 963.7
20211017101504 8 37 0.0 0.0 0.00 1.27 0.08 90 963.7
20211017101005 8 37 0.0 0.0 0.00 1.27 0.08 90 963.7
20211017100504 9 37 0.0 0.0 0.00 1.27 0.08 90 963.6
20211017100005 9 37 0.0 0.0 0.00 1.27 0.08 90 963.6
20211017095504 9 37 0.0 0.0 0.00 1.27 0.08 90 963.5
20211017095005 9 37 0.0 0.0 0.00 1.27 0.08 90 963.5
20211017094504 9 37 0.0 0.0 0.00 1.27 0.08 90 963.5
20211017094006 9 37 0.0 0.0 0.00 1.27 0.08 90 963.4
20211017093504 9 37 0.0 0.0 0.00 1.27 0.08 90 963.4
20211017093006 9 37 0.0 0.0 0.00 1.27 0.08 90 963.3
20211017092504 9 37 0.0 0.0 0.00 1.27 0.08 90 963.3
20211017092005 9 37 0.0 0.0 0.00 1.27 0.08 90 963.2
20211017091503 10 37 0.0 0.0 0.00 1.27 0.08 90 963.2
20211017091006 9 37 0.0 0.0 0.00 1.27 0.08 90 963.1
20211017090503 9 37 0.0 0.0 0.00 1.27 0.08 90 963.0
20211017090006 9 37 0.0 0.0 0.00 1.27 0.08 90 963.0
20211017085504 9 37 0.0 0.0 0.00 1.27 0.08 90 963.0
20211017085005 10 37 0.0 0.0 0.00 1.27 0.08 90 962.9
20211017084504 10 37 0.0 0.0 0.00 1.27 0.08 90 962.9
20211017084006 9 37 0.0 0.0 0.00 1.27 0.08 90 962.8
20211017083504 9 37 0.0 0.0 0.00 1.27 0.08 90 962.7
20211017083005 10 37 0.0 0.0 0.00 1.27 0.08 90 962.7
20211017082504 10 37 0.0 0.0 0.00 1.27 0.08 90 962.7
20211017082005 10 37 0.0 0.0 0.00 1.27 0.08 90 962.6
20211017081504 10 37 0.0 0.0 0.00 1.27 0.08 90 962.6
20211017081005 9 37 0.0 0.0 0.00 1.27 0.08 90 962.7
20211017080503 10 37 0.0 0.0 0.00 1.27 0.08 90 962.6
20211017080006 10 37 0.0 0.0 0.00 1.27 0.08 90 962.5
20211017075504 10 37 0.0 0.0 0.00 1.27 0.08 90 962.5
20211017075006 10 37 0.0 0.0 0.00 1.27 0.08 90 962.4
20211017074504 10 37 0.0 0.0 0.00 1.27 0.08 90 962.3
20211017074005 10 37 0.0 0.0 0.00 1.27 0.08 90 962.3
20211017073503 10 37 0.0 0.0 0.00 1.27 0.08 90 962.3
20211017073005 10 37 0.0 0.0 0.00 1.27 0.08 90 962.3
20211017072504 10 37 0.0 0.0 0.00 1.27 0.08 90 962.2
20211017072006 10 37 0.0 0.0 0.00 1.27 0.08 90 962.2
20211017071505 10 37 0.0 0.0 0.00 1.27 0.08 90 962.3
20211017071006 11 37 0.0 0.0 0.00 1.27 0.08 90 962.4
20211017070504 11 37 0.0 0.0 0.00 1.27 0.08 90 962.5
20211017070006 11 37 0.0 0.0 0.00 1.27 0.08 90 962.5
20211017065504 11 37 0.0 0.0 0.00 1.27 0.08 90 962.5
20211017065005 10 37 0.0 0.0 0.00 1.27 0.08 90 962.5
20211017064504 11 37 0.0 0.0 0.00 1.27 0.08 90 962.5
20211017064006 11 37 0.0 0.0 0.00 1.27 0.08 90 962.5
20211017063504 12 37 0.0 0.0 0.03 1.27 0.08 90 962.6
20211017063005 11 37 0.0 0.0 0.03 1.27 0.08 90 962.6
20211017062504 11 37 0.0 0.0 0.03 1.27 0.08 90 962.7
20211017062005 12 37 0.0 0.0 0.03 1.27 0.08 90 962.6
20211017061504 12 37 0.0 0.0 0.03 1.27 0.08 90 962.5
20211017061005 13 37 0.0 0.0 0.03 1.27 0.08 90 962.4
20211017060504 13 37 0.0 0.0 0.03 1.27 0.08 90 962.1
20211017060005 12 37 0.0 0.0 0.03 1.27 0.08 90 961.8
20211017055504 13 37 0.0 0.0 0.03 1.27 0.08 90 961.9
20211017055005 13 37 0.0 0.0 0.05 1.27 0.08 90 961.9
20211017054504 14 37 0.0 0.0 0.05 1.27 0.08 90 961.7
20211017054005 14 37 0.0 0.0 0.05 1.27 0.08 90 961.9
20211017053504 13 37 0.0 0.0 0.03 1.24 0.05 90 962.1
20211017053005 14 37 0.0 0.0 0.03 1.24 0.05 90 962.3
20211017052503 14 37 0.0 0.0 0.03 1.24 0.05 90 962.8
20211017052005 14 37 0.0 0.0 0.03 1.24 0.05 90 962.6
20211017051504 14 37 0.0 4.8 0.03 1.24 0.05 90 962.4
20211017051005 14 37 0.0 4.8 0.03 1.24 0.05 90 962.3
20211017050504 15 1 0.0 4.8 0.05 1.24 0.05 90 962.6
20211017050006 15 0 0.0 0.0 0.05 1.24 0.05 90 962.7
20211017045504 15 0 0.0 0.0 0.08 1.24 0.05 90 963.1
20211017045006 15 0 0.0 0.0 0.08 1.22 0.03 90 962.8
20211017044504 15 0 0.0 0.0 0.08 1.22 0.03 90 962.4
20211017044005 15 0 0.0 0.0 0.10 1.22 0.03 90 962.6
20211017043504 15 0 0.0 0.0 0.10 1.22 0.03 90 962.3
20211017043006 15 0 0.0 0.0 0.10 1.22 0.03 90 962.5
20211017042504 15 0 0.0 0.0 0.10 1.22 0.03 90 962.6
20211017042005 15 0 0.0 0.0 0.10 1.22 0.03 90 962.6
20211017041504 15 0 0.0 0.0 0.13 1.22 0.03 90 962.5
20211017041006 15 0 0.0 0.0 0.18 1.22 0.03 90 962.8
20211017040504 15 0 0.0 0.0 0.20 1.19 0.00 90 962.7
20211017040006 15 0 0.0 0.0 0.23 1.19 0.00 90 963.0
20211017035006 15 0 0.0 0.0 0.20 1.17 1.17 90 963.0
20211017034504 15 0 0.0 0.0 0.25 1.17 1.17 90 963.0
20211017034006 15 0 0.0 0.0 0.28 1.14 1.14 90 963.1
20211017033504 15 0 0.0 0.0 0.33 1.14 1.14 90 963.1
20211017033006 15 0 0.0 0.0 0.33 1.12 1.12 90 963.2
20211017032504 15 0 0.0 0.0 0.38 1.12 1.12 90 963.2
20211017032006 15 0 0.0 0.0 0.41 1.12 1.12 90 963.1
20211017031504 15 0 0.0 0.0 0.46 1.12 1.12 90 963.2
20211017031005 15 37 0.0 0.0 0.51 1.12 1.12 90 963.4
20211017030503 15 37 0.0 0.0 0.53 1.09 1.09 90 963.4
20211017030005 15 37 0.0 0.0 0.53 1.07 1.07 90 963.6
20211017025504 15 37 0.0 0.0 0.48 1.02 1.02 90 963.6
20211017025005 15 37 0.0 0.0 0.46 0.97 0.97 90 963.4
20211017024503 15 37 0.0 0.0 0.43 0.94 0.94 90 963.5
20211017024005 15 37 0.0 0.0 0.38 0.89 0.89 90 963.6
20211017023504 15 37 0.0 0.0 0.33 0.84 0.84 90 963.7
20211017023008 16 37 0.0 0.0 0.28 0.79 0.79 90 963.5
20211017022504 16 37 0.0 0.0 0.25 0.76 0.76 90 963.0
20211017022005 16 37 0.0 9.7 0.23 0.74 0.74 90 963.1
20211017021504 16 37 1.6 9.7 0.18 0.69 0.69 90 962.8
20211017021004 16 350 0.0 0.0 0.13 0.64 0.64 90 962.8
20211017020503 16 350 0.0 0.0 0.08 0.56 0.56 90 962.9
20211017020006 16 350 0.0 0.0 0.05 0.53 0.53 90 962.9
20211017015503 16 350 0.0 0.0 0.05 0.53 0.53 90 962.5
20211017015005 16 350 0.0 0.0 0.03 0.51 0.51 89 962.6
20211017014504 16 350 0.0 0.0 0.03 0.51 0.51 89 962.1
20211017014005 16 350 0.0 0.0 0.03 0.51 0.51 89 962.1
20211017013503 16 350 0.0 0.0 0.05 0.51 0.51 89 962.4
20211017013005 17 350 0.0 0.0 0.10 0.51 0.51 88 962.3
20211017012504 17 350 0.0 0.0 0.13 0.51 0.51 88 962.3
20211017012006 17 350 0.0 1.6 0.13 0.51 0.51 88 962.1
20211017011505 17 350 0.0 11.3 0.13 0.51 0.51 88 962.0
20211017011005 17 350 1.6 11.3 0.13 0.51 0.51 88 962.3
20211017010504 17 13 0.0 8.0 0.10 0.48 0.48 89 962.1
20211017010009 17 268 0.0 0.0 0.13 0.48 0.48 89 962.1
20211017005504 17 268 0.0 0.0 0.13 0.48 0.48 89 962.0
20211017005005 18 268 0.0 0.0 0.15 0.48 0.48 89 962.2
20211017004504 18 268 0.0 0.0 0.18 0.48 0.48 89 961.9
20211017004005 18 268 0.0 1.6 0.20 0.48 0.48 88 961.9
20211017003505 18 268 0.0 1.6 0.20 0.46 0.46 88 961.9
20211017003005 18 268 0.0 0.0 0.33 0.41 0.41 88 962.0
20211017002503 18 268 0.0 0.0 0.38 0.38 0.38 87 961.8
20211017002005 18 268 0.0 0.0 0.38 0.38 0.38 87 961.6
20211017001504 18 268 0.0 0.0 0.38 0.38 0.38 86 961.5
20211017001005 18 268 0.0 0.0 0.38 0.38 0.38 86 961.5
20211017000504 18 268 0.0 0.0 0.38 0.38 0.38 85 961.5
20211017000005 18 268 0.0 0.0 0.36 0.36 0.36 84 961.5
20211016235504 18 268 0.0 0.0 0.36 0.36 0.36 83 961.6
20211016235005 19 268 0.0 4.8 0.33 0.33 0.33 82 961.6
20211016234504 19 268 0.0 4.8 0.30 0.30 0.30 81 961.6
20211016234005 20 265 1.6 12.9 0.28 0.28 0.28 80 961.7
20211016233504 20 271 0.0 27.4 0.25 0.25 0.25 78 961.6
20211016233006 21 304 4.8 27.4 0.08 0.08 0.08 75 961.5
20211016232504 21 281 8.0 27.4 0.00 0.00 0.00 75 961.3
20211016232005 21 286 9.7 25.7 0.00 0.00 0.00 74 961.1
20211016231504 21 223 14.5 25.7 0.00 0.00 0.00 74 961.0
20211016231005 21 225 16.1 25.7 0.00 0.00 0.00 74 960.6
20211016230504 21 205 9.7 22.5 0.00 0.00 0.00 74 960.5
20211016230006 21 182 14.5 22.5 0.00 0.00 0.00 74 960.3
20211016225504 21 200 12.9 24.1 0.00 0.00 0.00 74 960.2
20211016225006 21 213 12.9 27.4 0.00 0.00 0.00 74 960.0
20211016224504 21 195 16.1 27.4 0.00 0.00 0.00 74 960.0
20211016224006 21 196 16.1 27.4 0.00 0.00 0.00 74 959.8
20211016223504 21 185 14.5 25.7 0.00 0.00 0.00 75 959.8
20211016223006 21 196 14.5 25.7 0.00 0.00 0.00 75 959.8
20211016222504 21 184 11.3 25.7 0.00 0.00 0.00 75 959.8
20211016222005 21 182 14.5 25.7 0.00 0.00 0.00 75 959.9
20211016221504 22 191 12.9 25.7 0.00 0.00 0.00 75 960.0
20211016221005 22 178 16.1 24.1 0.00 0.00 0.00 74 959.9
20211016220504 22 189 8.0 22.5 0.00 0.00 0.00 74 959.8
20211016220005 22 182 14.5 22.5 0.00 0.00 0.00 74 959.8
20211016215503 22 188 11.3 25.7 0.00 0.00 0.00 73 959.8
20211016215006 22 173 12.9 25.7 0.00 0.00 0.00 73 960.0
20211016214504 22 188 9.7 25.7 0.00 0.00 0.00 72 959.9
20211016214006 22 194 9.7 24.1 0.00 0.00 0.00 72 959.8
20211016213504 22 109 11.3 25.7 0.00 0.00 0.00 71 959.7
20211016213006 22 199 11.3 25.7 0.00 0.00 0.00 70 959.7
20211016212504 22 167 16.1 24.1 0.00 0.00 0.00 70 960.0
20211016212006 22 199 16.1 33.8 0.00 0.00 0.00 70 960.3
20211016211504 22 168 16.1 33.8 0.00 0.00 0.00 69 960.3
20211016211005 22 187 9.7 25.7 0.00 0.00 0.00 68 960.2
20211016210504 22 205 11.3 27.4 0.00 0.00 0.00 68 960.2
20211016210005 22 205 16.1 27.4 0.00 0.00 0.00 67 960.2
20211016205504 23 219 9.7 20.9 0.00 0.00 0.00 66 960.3
20211016205006 23 165 11.3 20.9 0.00 0.00 0.00 65 960.4
20211016204504 23 157 11.3 24.1 0.00 0.00 0.00 64 960.3
20211016203504 23 191 11.3 24.1 0.00 0.00 0.00 64 960.5
20211016203008 23 200 4.8 24.1 0.00 0.00 0.00 64 960.6
20211016201502 23 187 12.9 20.9 0.00 0.00 0.00 66 960.8
20211016201003 23 177 9.7 25.7 0.00 0.00 0.00 66 960.9
20211016200501 23 166 9.7 25.7 0.00 0.00 0.00 64 961.0
20211016195502 23 214 16.1 37.0 0.00 0.00 0.00 64 960.9
20211016195003 23 177 9.7 37.0 0.00 0.00 0.00 64 960.9
20211016194501 23 210 14.5 29.0 0.00 0.00 0.00 63 960.9
20211016194003 23 185 9.7 29.0 0.00 0.00 0.00 63 961.0
20211016193502 23 168 17.7 37.0 0.00 0.00 0.00 62 961.2
20211016193004 23 204 19.3 37.0 0.00 0.00 0.00 61 961.3
20211016192501 23 214 19.3 32.2 0.00 0.00 0.00 61 961.3
20211016192004 23 206 14.5 33.8 0.00 0.00 0.00 60 961.2
20211016191502 24 227 14.5 35.4 0.00 0.00 0.00 60 961.3
20211016191003 24 205 24.1 35.4 0.00 0.00 0.00 59 961.4
20211016190502 24 204 20.9 35.4 0.00 0.00 0.00 59 961.5
20211016190003 24 183 20.9 37.0 0.00 0.00 0.00 60 961.6
20211016185502 23 205 20.9 40.2 0.00 0.00 0.00 60 961.7
20211016185004 23 170 19.3 40.2 0.00 0.00 0.00 60 961.7
20211016184502 23 194 20.9 40.2 0.00 0.00 0.00 61 961.8
20211016184003 23 208 19.3 37.0 0.00 0.00 0.00 61 961.8
20211016183502 23 177 14.5 37.0 0.00 0.00 0.00 61 961.7
20211016183004 24 210 16.1 37.0 0.00 0.00 0.00 61 961.8
20211016182502 23 186 17.7 27.4 0.00 0.00 0.00 60 961.8
20211016182003 23 192 14.5 46.7 0.00 0.00 0.00 62 961.9
20211016181502 23 219 19.3 46.7 0.00 0.00 0.00 61 961.9
20211016181004 23 197 22.5 35.4 0.00 0.00 0.00 61 962.1
20211016180502 23 191 14.5 35.4 0.00 0.00 0.00 61 962.1
20211016180003 24 159 19.3 33.8 0.00 0.00 0.00 62 962.2
20211016175502 23 204 17.7 32.2 0.00 0.00 0.00 64 962.2
20211016175003 23 200 20.9 37.0 0.00 0.00 0.00 63 962.3
20211016174503 23 196 20.9 37.0 0.00 0.00 0.00 64 962.3
20211016174003 23 190 17.7 29.0 0.00 0.00 0.00 65 962.4
20211016173502 23 197 11.3 25.7 0.00 0.00 0.00 67 962.5
20211016173003 23 203 12.9 25.7 0.00 0.00 0.00 67 962.5
20211016172502 23 211 14.5 29.0 0.00 0.00 0.00 67 962.6
20211016172003 23 215 14.5 29.0 0.00 0.00 0.00 67 962.7
20211016171502 23 202 19.3 32.2 0.00 0.00 0.00 66 962.7
20211016171003 23 199 17.7 32.2 0.00 0.00 0.00 67 962.7
20211016170502 23 188 11.3 27.4 0.00 0.00 0.00 69 963.0
20211016170003 23 209 16.1 27.4 0.00 0.00 0.00 68 963.1
20211016165502 23 190 11.3 38.6 0.00 0.00 0.00 69 963.2
20211016165003 22 184 17.7 38.6 0.00 0.00 0.00 69 963.3
20211016164501 22 181 11.3 25.7 0.00 0.00 0.00 70 963.4
20211016164004 22 191 12.9 32.2 0.00 0.00 0.00 70 963.5
20211016163502 22 208 17.7 33.8 0.00 0.00 0.00 69 963.7
20211016163004 22 177 14.5 33.8 0.00 0.00 0.00 69 963.8
20211016162502 22 192 14.5 27.4 0.00 0.00 0.00 70 963.9
20211016162003 22 166 17.7 25.7 0.00 0.00 0.00 70 964.0
20211016161502 22 208 11.3 24.1 0.00 0.00 0.00 71 964.0
20211016161003 22 210 12.9 20.9 0.00 0.00 0.00 71 964.0
20211016160502 22 177 9.7 22.5 0.00 0.00 0.00 72 964.0
20211016160003 22 220 14.5 24.1 0.00 0.00 0.00 72 964.0
20211016155502 22 207 11.3 24.1 0.00 0.00 0.00 74 964.0
20211016155003 22 187 12.9 24.1 0.00 0.00 0.00 74 964.2
20211016154502 22 187 9.7 29.0 0.00 0.00 0.00 75 964.5
20211016154003 22 176 9.7 29.0 0.00 0.00 0.00 76 964.5
20211016153502 22 196 9.7 29.0 0.00 0.00 0.00 76 964.5
20211016153004 22 199 11.3 20.9 0.00 0.00 0.00 77 964.4
20211016152502 22 156 8.0 24.1 0.00 0.00 0.00 78 964.5
20211016152004 22 197 14.5 24.1 0.00 0.00 0.00 78 964.4
20211016151502 22 193 9.7 24.1 0.00 0.00 0.00 79 964.5
20211016151003 22 234 3.2 19.3 0.00 0.00 0.00 80 964.5